Terminal Aerodrome Forecast
Issued by NWS

Home | Current Version | Previous Version | Text Only | Print | Product List | Glossary On
Versions: 1 2 3 4 5 6 7 8 9 10 11 12 13 14 15
000
FTAK31 PAJN 230500
TAFAPG
TAF
PAPG 230530Z 2306/2406 20003KT P6SM -SHRA FEW020 BKN025 BKN035
      TEMPO 2306/2309 00000KT 5SM -SHRA BR FEW005 BKN020 OVC030
     FM230900 00000KT 3SM -SHRA BR BCFG BKN015 OVC025
     FM231800 00000KT 5SM -SHRA BR SCT015 BKN025 OVC035
      AMD LTD TO CLD VIS AND WIND 2306/2315=

USA.gov is the U.S. government's official web portal to all federal, state and local government web resources and services.